sensor_id;sensor_type;location;lat;lon;timestamp;P1;durP1;ratioP1;P2;durP2;ratioP2
71806;SDS011;59655;42.590;23.364;2022-12-05T00:00:45;9.07;;;3.67;;
71806;SDS011;59655;42.590;23.364;2022-12-05T00:03:11;8.95;;;4.25;;
71806;SDS011;59655;42.590;23.364;2022-12-05T00:05:38;8.60;;;3.50;;
71806;SDS011;59655;42.590;23.364;2022-12-05T00:08:04;4.45;;;2.28;;
71806;SDS011;59655;42.590;23.364;2022-12-05T00:10:30;3.38;;;1.80;;
71806;SDS011;59655;42.590;23.364;2022-12-05T00:12:55;3.95;;;2.17;;
71806;SDS011;59655;42.590;23.364;2022-12-05T00:15:20;3.35;;;1.90;;
71806;SDS011;59655;42.590;23.364;2022-12-05T00:17:46;4.30;;;2.22;;
71806;SDS011;59655;42.590;23.364;2022-12-05T00:20:11;5.13;;;1.92;;
71806;SDS011;59655;42.590;23.364;2022-12-05T00:22:37;5.43;;;2.78;;
71806;SDS011;59655;42.590;23.364;2022-12-05T00:25:04;5.72;;;3.17;;
71806;SDS011;59655;42.590;23.364;2022-12-05T00:27:30;6.13;;;3.28;;
71806;SDS011;59655;42.590;23.364;2022-12-05T00:29:56;5.60;;;3.03;;
71806;SDS011;59655;42.590;23.364;2022-12-05T00:32:21;6.20;;;3.17;;
71806;SDS011;59655;42.590;23.364;2022-12-05T00:34:47;6.43;;;3.63;;
71806;SDS011;59655;42.590;23.364;2022-12-05T00:37:12;9.02;;;4.10;;
71806;SDS011;59655;42.590;23.364;2022-12-05T00:39:37;8.15;;;3.97;;
71806;SDS011;59655;42.590;23.364;2022-12-05T00:42:03;8.85;;;4.50;;
71806;SDS011;59655;42.590;23.364;2022-12-05T00:44:28;8.55;;;4.05;;
71806;SDS011;59655;42.590;23.364;2022-12-05T00:46:54;8.77;;;4.28;;
71806;SDS011;59655;42.590;23.364;2022-12-05T00:49:19;7.63;;;3.95;;
71806;SDS011;59655;42.590;23.364;2022-12-05T00:51:44;9.60;;;4.75;;
71806;SDS011;59655;42.590;23.364;2022-12-05T00:54:11;8.60;;;4.30;;
71806;SDS011;59655;42.590;23.364;2022-12-05T00:56:39;9.80;;;4.15;;
71806;SDS011;59655;42.590;23.364;2022-12-05T00:59:05;8.15;;;3.60;;
71806;SDS011;59655;42.590;23.364;2022-12-05T01:01:36;12.32;;;6.20;;
71806;SDS011;59655;42.590;23.364;2022-12-05T01:04:09;10.75;;;4.78;;
71806;SDS011;59655;42.590;23.364;2022-12-05T01:06:36;8.90;;;3.85;;
71806;SDS011;59655;42.590;23.364;2022-12-05T01:09:02;8.93;;;4.25;;
71806;SDS011;59655;42.590;23.364;2022-12-05T01:11:29;7.70;;;3.63;;
71806;SDS011;59655;42.590;23.364;2022-12-05T01:13:54;8.73;;;3.90;;
71806;SDS011;59655;42.590;23.364;2022-12-05T01:16:22;9.32;;;4.88;;
71806;SDS011;59655;42.590;23.364;2022-12-05T01:18:50;10.38;;;4.70;;
71806;SDS011;59655;42.590;23.364;2022-12-05T01:21:15;14.55;;;5.40;;
71806;SDS011;59655;42.590;23.364;2022-12-05T01:23:41;12.13;;;6.13;;
71806;SDS011;59655;42.590;23.364;2022-12-05T01:26:08;13.48;;;6.57;;
71806;SDS011;59655;42.590;23.364;2022-12-05T01:28:36;15.13;;;6.95;;
71806;SDS011;59655;42.590;23.364;2022-12-05T01:31:03;14.13;;;7.20;;
71806;SDS011;59655;42.590;23.364;2022-12-05T01:33:34;15.38;;;7.85;;
71806;SDS011;59655;42.590;23.364;2022-12-05T01:36:00;14.82;;;7.75;;
71806;SDS011;59655;42.590;23.364;2022-12-05T01:38:27;19.27;;;8.25;;
71806;SDS011;59655;42.590;23.364;2022-12-05T01:40:59;14.32;;;7.88;;
71806;SDS011;59655;42.590;23.364;2022-12-05T01:43:26;15.35;;;8.07;;
71806;SDS011;59655;42.590;23.364;2022-12-05T01:45:51;17.73;;;8.38;;
71806;SDS011;59655;42.590;23.364;2022-12-05T01:48:18;15.05;;;7.85;;
71806;SDS011;59655;42.590;23.364;2022-12-05T01:50:46;15.00;;;7.78;;
71806;SDS011;59655;42.590;23.364;2022-12-05T01:53:12;13.98;;;7.88;;
71806;SDS011;59655;42.590;23.364;2022-12-05T01:55:38;15.10;;;7.63;;
71806;SDS011;59655;42.590;23.364;2022-12-05T01:58:04;12.70;;;7.10;;
71806;SDS011;59655;42.590;23.364;2022-12-05T02:00:32;14.18;;;7.60;;
71806;SDS011;59655;42.590;23.364;2022-12-05T02:03:05;13.02;;;7.60;;
71806;SDS011;59655;42.590;23.364;2022-12-05T02:05:34;16.60;;;8.75;;
71806;SDS011;59655;42.590;23.364;2022-12-05T02:08:02;13.90;;;6.97;;
71806;SDS011;59655;42.590;23.364;2022-12-05T02:10:32;13.43;;;6.72;;
71806;SDS011;59655;42.590;23.364;2022-12-05T02:13:08;12.18;;;6.50;;
71806;SDS011;59655;42.590;23.364;2022-12-05T02:15:45;10.43;;;5.95;;
71806;SDS011;59655;42.590;23.364;2022-12-05T02:18:27;8.32;;;5.00;;
71806;SDS011;59655;42.590;23.364;2022-12-05T02:34:09;11.77;;;5.90;;
71806;SDS011;59655;42.590;23.364;2022-12-05T02:39:44;7.78;;;5.22;;
71806;SDS011;59655;42.590;23.364;2022-12-05T02:44:49;7.20;;;4.25;;
71806;SDS011;59655;42.590;23.364;2022-12-05T02:47:20;9.88;;;4.63;;
71806;SDS011;59655;42.590;23.364;2022-12-05T02:49:49;17.90;;;7.00;;
71806;SDS011;59655;42.590;23.364;2022-12-05T02:52:17;12.32;;;6.57;;
71806;SDS011;59655;42.590;23.364;2022-12-05T02:54:43;14.35;;;6.45;;
71806;SDS011;59655;42.590;23.364;2022-12-05T02:57:11;15.43;;;6.70;;
71806;SDS011;59655;42.590;23.364;2022-12-05T02:59:38;13.57;;;6.22;;
71806;SDS011;59655;42.590;23.364;2022-12-05T03:02:03;14.73;;;7.60;;
71806;SDS011;59655;42.590;23.364;2022-12-05T03:04:29;15.27;;;6.97;;
71806;SDS011;59655;42.590;23.364;2022-12-05T03:09:42;13.68;;;7.13;;
71806;SDS011;59655;42.590;23.364;2022-12-05T03:12:13;12.27;;;6.35;;
71806;SDS011;59655;42.590;23.364;2022-12-05T03:14:46;13.15;;;6.95;;
71806;SDS011;59655;42.590;23.364;2022-12-05T03:17:17;14.45;;;6.97;;
71806;SDS011;59655;42.590;23.364;2022-12-05T03:22:17;19.13;;;8.65;;
71806;SDS011;59655;42.590;23.364;2022-12-05T03:24:50;21.02;;;8.93;;
71806;SDS011;59655;42.590;23.364;2022-12-05T03:30:06;21.05;;;8.63;;
71806;SDS011;59655;42.590;23.364;2022-12-05T03:40:20;21.20;;;7.88;;
71806;SDS011;59655;42.590;23.364;2022-12-05T03:42:56;29.50;;;11.05;;
71806;SDS011;59655;42.590;23.364;2022-12-05T03:45:35;23.30;;;9.65;;
71806;SDS011;59655;42.590;23.364;2022-12-05T03:50:49;36.92;;;13.38;;
71806;SDS011;59655;42.590;23.364;2022-12-05T03:53:19;21.48;;;10.40;;
71806;SDS011;59655;42.590;23.364;2022-12-05T03:55:52;21.13;;;10.32;;
71806;SDS011;59655;42.590;23.364;2022-12-05T03:58:25;27.52;;;11.32;;
71806;SDS011;59655;42.590;23.364;2022-12-05T04:00:54;17.67;;;10.32;;
71806;SDS011;59655;42.590;23.364;2022-12-05T04:03:25;19.63;;;10.27;;
71806;SDS011;59655;42.590;23.364;2022-12-05T04:06:03;18.45;;;8.70;;
71806;SDS011;59655;42.590;23.364;2022-12-05T04:08:35;16.88;;;8.90;;
71806;SDS011;59655;42.590;23.364;2022-12-05T04:11:05;23.45;;;10.23;;
71806;SDS011;59655;42.590;23.364;2022-12-05T04:13:37;10.35;;;6.40;;
71806;SDS011;59655;42.590;23.364;2022-12-05T04:16:11;11.60;;;5.82;;
71806;SDS011;59655;42.590;23.364;2022-12-05T04:19:06;9.38;;;5.88;;
71806;SDS011;59655;42.590;23.364;2022-12-05T04:21:40;65.05;;;38.90;;
71806;SDS011;59655;42.590;23.364;2022-12-05T04:24:10;28.65;;;17.13;;
71806;SDS011;59655;42.590;23.364;2022-12-05T04:27:09;23.25;;;13.77;;
71806;SDS011;59655;42.590;23.364;2022-12-05T04:29:41;19.48;;;10.60;;
71806;SDS011;59655;42.590;23.364;2022-12-05T04:32:29;17.52;;;9.38;;
71806;SDS011;59655;42.590;23.364;2022-12-05T04:35:04;14.05;;;7.65;;
71806;SDS011;59655;42.590;23.364;2022-12-05T04:37:34;14.57;;;8.55;;
71806;SDS011;59655;42.590;23.364;2022-12-05T04:40:16;12.60;;;7.90;;
71806;SDS011;59655;42.590;23.364;2022-12-05T04:42:45;11.27;;;7.43;;
71806;SDS011;59655;42.590;23.364;2022-12-05T04:45:14;12.40;;;8.35;;
71806;SDS011;59655;42.590;23.364;2022-12-05T04:47:43;11.93;;;7.70;;
71806;SDS011;59655;42.590;23.364;2022-12-05T04:50:14;18.65;;;10.82;;
71806;SDS011;59655;42.590;23.364;2022-12-05T04:52:40;18.48;;;11.20;;
71806;SDS011;59655;42.590;23.364;2022-12-05T04:55:14;17.00;;;10.55;;
71806;SDS011;59655;42.590;23.364;2022-12-05T04:57:48;15.82;;;10.60;;
71806;SDS011;59655;42.590;23.364;2022-12-05T05:03:16;10.65;;;6.85;;
71806;SDS011;59655;42.590;23.364;2022-12-05T05:05:49;12.15;;;7.22;;
71806;SDS011;59655;42.590;23.364;2022-12-05T05:08:20;11.73;;;6.90;;
71806;SDS011;59655;42.590;23.364;2022-12-05T05:11:13;8.60;;;5.32;;
71806;SDS011;59655;42.590;23.364;2022-12-05T05:13:41;12.00;;;6.22;;
71806;SDS011;59655;42.590;23.364;2022-12-05T05:16:07;8.23;;;5.50;;
71806;SDS011;59655;42.590;23.364;2022-12-05T05:18:32;9.77;;;4.90;;
71806;SDS011;59655;42.590;23.364;2022-12-05T05:20:58;9.77;;;4.75;;
71806;SDS011;59655;42.590;23.364;2022-12-05T05:23:23;7.78;;;4.65;;
71806;SDS011;59655;42.590;23.364;2022-12-05T05:25:53;7.05;;;4.43;;
71806;SDS011;59655;42.590;23.364;2022-12-05T05:28:19;12.40;;;5.55;;
71806;SDS011;59655;42.590;23.364;2022-12-05T05:30:45;7.22;;;4.50;;
71806;SDS011;59655;42.590;23.364;2022-12-05T05:33:11;10.13;;;6.07;;
71806;SDS011;59655;42.590;23.364;2022-12-05T05:35:36;13.98;;;7.25;;
71806;SDS011;59655;42.590;23.364;2022-12-05T05:38:02;16.83;;;7.53;;
71806;SDS011;59655;42.590;23.364;2022-12-05T05:40:28;12.13;;;5.90;;
71806;SDS011;59655;42.590;23.364;2022-12-05T05:42:54;10.82;;;6.07;;
71806;SDS011;59655;42.590;23.364;2022-12-05T05:45:20;10.77;;;6.40;;
71806;SDS011;59655;42.590;23.364;2022-12-05T05:47:47;11.93;;;6.90;;
71806;SDS011;59655;42.590;23.364;2022-12-05T05:50:13;11.48;;;6.25;;
71806;SDS011;59655;42.590;23.364;2022-12-05T05:52:39;9.15;;;5.32;;
71806;SDS011;59655;42.590;23.364;2022-12-05T05:55:05;10.90;;;5.70;;
71806;SDS011;59655;42.590;23.364;2022-12-05T05:57:31;11.98;;;6.70;;
71806;SDS011;59655;42.590;23.364;2022-12-05T05:59:56;16.92;;;8.98;;
71806;SDS011;59655;42.590;23.364;2022-12-05T06:02:22;17.75;;;8.82;;
71806;SDS011;59655;42.590;23.364;2022-12-05T06:04:47;18.13;;;8.43;;
71806;SDS011;59655;42.590;23.364;2022-12-05T06:07:13;25.90;;;12.00;;
71806;SDS011;59655;42.590;23.364;2022-12-05T06:09:39;20.15;;;9.00;;
71806;SDS011;59655;42.590;23.364;2022-12-05T06:12:04;19.58;;;9.18;;
71806;SDS011;59655;42.590;23.364;2022-12-05T06:14:30;16.27;;;9.00;;
71806;SDS011;59655;42.590;23.364;2022-12-05T06:16:55;14.82;;;7.40;;
71806;SDS011;59655;42.590;23.364;2022-12-05T06:19:21;13.80;;;7.63;;
71806;SDS011;59655;42.590;23.364;2022-12-05T06:21:47;13.60;;;10.02;;
71806;SDS011;59655;42.590;23.364;2022-12-05T06:24:14;15.60;;;10.60;;
71806;SDS011;59655;42.590;23.364;2022-12-05T06:26:40;14.60;;;9.23;;
71806;SDS011;59655;42.590;23.364;2022-12-05T06:29:05;13.95;;;8.40;;
71806;SDS011;59655;42.590;23.364;2022-12-05T06:31:31;13.23;;;7.43;;
71806;SDS011;59655;42.590;23.364;2022-12-05T06:34:01;14.38;;;8.63;;
71806;SDS011;59655;42.590;23.364;2022-12-05T06:36:28;17.10;;;10.75;;
71806;SDS011;59655;42.590;23.364;2022-12-05T06:38:57;19.02;;;12.00;;
71806;SDS011;59655;42.590;23.364;2022-12-05T06:41:23;19.20;;;11.63;;
71806;SDS011;59655;42.590;23.364;2022-12-05T06:43:52;15.57;;;9.88;;
71806;SDS011;59655;42.590;23.364;2022-12-05T06:46:19;10.43;;;7.13;;
71806;SDS011;59655;42.590;23.364;2022-12-05T06:48:45;12.35;;;7.00;;
71806;SDS011;59655;42.590;23.364;2022-12-05T06:51:11;12.23;;;6.32;;
71806;SDS011;59655;42.590;23.364;2022-12-05T06:53:39;9.70;;;5.32;;
71806;SDS011;59655;42.590;23.364;2022-12-05T06:56:05;11.50;;;6.45;;
71806;SDS011;59655;42.590;23.364;2022-12-05T06:58:36;12.45;;;6.00;;
71806;SDS011;59655;42.590;23.364;2022-12-05T07:01:02;10.00;;;5.40;;
71806;SDS011;59655;42.590;23.364;2022-12-05T07:03:49;10.55;;;5.70;;
71806;SDS011;59655;42.590;23.364;2022-12-05T07:06:15;9.98;;;6.47;;
71806;SDS011;59655;42.590;23.364;2022-12-05T07:08:41;10.52;;;6.43;;
71806;SDS011;59655;42.590;23.364;2022-12-05T07:11:07;12.10;;;6.82;;
71806;SDS011;59655;42.590;23.364;2022-12-05T07:13:32;11.60;;;6.28;;
71806;SDS011;59655;42.590;23.364;2022-12-05T07:15:58;11.63;;;6.00;;
71806;SDS011;59655;42.590;23.364;2022-12-05T07:18:23;12.98;;;6.55;;
71806;SDS011;59655;42.590;23.364;2022-12-05T07:20:59;14.40;;;6.47;;
71806;SDS011;59655;42.590;23.364;2022-12-05T07:23:29;15.82;;;8.75;;
71806;SDS011;59655;42.590;23.364;2022-12-05T07:25:55;11.88;;;5.82;;
71806;SDS011;59655;42.590;23.364;2022-12-05T07:28:21;9.82;;;5.70;;
71806;SDS011;59655;42.590;23.364;2022-12-05T07:30:47;9.38;;;4.88;;
71806;SDS011;59655;42.590;23.364;2022-12-05T07:33:13;8.38;;;4.13;;
71806;SDS011;59655;42.590;23.364;2022-12-05T07:35:39;9.20;;;4.75;;
71806;SDS011;59655;42.590;23.364;2022-12-05T07:38:04;10.15;;;5.07;;
71806;SDS011;59655;42.590;23.364;2022-12-05T07:40:29;9.30;;;4.85;;
71806;SDS011;59655;42.590;23.364;2022-12-05T07:42:55;12.23;;;5.70;;
71806;SDS011;59655;42.590;23.364;2022-12-05T07:45:20;12.60;;;6.28;;
71806;SDS011;59655;42.590;23.364;2022-12-05T07:47:46;11.90;;;6.10;;
71806;SDS011;59655;42.590;23.364;2022-12-05T07:50:12;9.95;;;5.63;;
71806;SDS011;59655;42.590;23.364;2022-12-05T07:52:38;11.55;;;6.53;;
71806;SDS011;59655;42.590;23.364;2022-12-05T07:55:04;14.27;;;6.32;;
71806;SDS011;59655;42.590;23.364;2022-12-05T07:57:30;10.93;;;5.35;;
71806;SDS011;59655;42.590;23.364;2022-12-05T07:59:55;8.75;;;4.88;;
71806;SDS011;59655;42.590;23.364;2022-12-05T08:02:21;8.07;;;4.25;;
71806;SDS011;59655;42.590;23.364;2022-12-05T08:04:46;8.40;;;3.83;;
71806;SDS011;59655;42.590;23.364;2022-12-05T08:07:12;9.07;;;3.65;;
71806;SDS011;59655;42.590;23.364;2022-12-05T08:09:37;6.97;;;3.80;;
71806;SDS011;59655;42.590;23.364;2022-12-05T08:12:03;10.18;;;4.72;;
71806;SDS011;59655;42.590;23.364;2022-12-05T08:14:28;11.15;;;5.00;;
71806;SDS011;59655;42.590;23.364;2022-12-05T08:16:54;13.43;;;6.82;;
71806;SDS011;59655;42.590;23.364;2022-12-05T08:19:19;29.45;;;13.60;;
71806;SDS011;59655;42.590;23.364;2022-12-05T08:21:44;24.58;;;10.45;;
71806;SDS011;59655;42.590;23.364;2022-12-05T08:24:10;16.85;;;7.72;;
71806;SDS011;59655;42.590;23.364;2022-12-05T08:26:36;10.57;;;5.60;;
71806;SDS011;59655;42.590;23.364;2022-12-05T08:42:00;11.20;;;5.88;;
71806;SDS011;59655;42.590;23.364;2022-12-05T08:44:25;11.80;;;5.95;;
71806;SDS011;59655;42.590;23.364;2022-12-05T08:46:50;10.75;;;5.30;;
71806;SDS011;59655;42.590;23.364;2022-12-05T08:49:16;8.90;;;4.70;;
71806;SDS011;59655;42.590;23.364;2022-12-05T08:51:42;9.73;;;5.15;;
71806;SDS011;59655;42.590;23.364;2022-12-05T08:54:08;9.77;;;5.55;;
71806;SDS011;59655;42.590;23.364;2022-12-05T08:56:33;7.43;;;3.80;;
71806;SDS011;59655;42.590;23.364;2022-12-05T08:58:59;7.97;;;4.13;;
71806;SDS011;59655;42.590;23.364;2022-12-05T09:01:28;7.88;;;3.70;;
71806;SDS011;59655;42.590;23.364;2022-12-05T09:03:56;8.50;;;4.53;;
71806;SDS011;59655;42.590;23.364;2022-12-05T09:06:23;7.85;;;4.50;;
71806;SDS011;59655;42.590;23.364;2022-12-05T09:08:53;7.65;;;4.55;;
71806;SDS011;59655;42.590;23.364;2022-12-05T09:11:21;9.20;;;4.38;;
71806;SDS011;59655;42.590;23.364;2022-12-05T09:13:49;7.82;;;4.55;;
71806;SDS011;59655;42.590;23.364;2022-12-05T09:16:16;9.52;;;4.35;;
71806;SDS011;59655;42.590;23.364;2022-12-05T09:18:44;9.57;;;4.35;;
71806;SDS011;59655;42.590;23.364;2022-12-05T09:21:11;10.55;;;4.72;;
71806;SDS011;59655;42.590;23.364;2022-12-05T09:23:39;11.10;;;4.47;;
71806;SDS011;59655;42.590;23.364;2022-12-05T09:26:05;8.90;;;4.70;;
71806;SDS011;59655;42.590;23.364;2022-12-05T09:28:32;11.35;;;4.63;;
71806;SDS011;59655;42.590;23.364;2022-12-05T09:30:59;8.45;;;4.25;;
71806;SDS011;59655;42.590;23.364;2022-12-05T09:33:27;10.77;;;4.60;;
71806;SDS011;59655;42.590;23.364;2022-12-05T09:35:53;9.52;;;5.82;;
71806;SDS011;59655;42.590;23.364;2022-12-05T09:38:19;17.27;;;6.72;;
71806;SDS011;59655;42.590;23.364;2022-12-05T09:40:44;12.02;;;6.25;;
71806;SDS011;59655;42.590;23.364;2022-12-05T09:43:18;10.70;;;5.03;;
71806;SDS011;59655;42.590;23.364;2022-12-05T09:46:14;9.93;;;5.45;;
71806;SDS011;59655;42.590;23.364;2022-12-05T09:48:42;13.73;;;6.30;;
71806;SDS011;59655;42.590;23.364;2022-12-05T09:51:09;11.57;;;6.00;;
71806;SDS011;59655;42.590;23.364;2022-12-05T09:53:38;13.77;;;7.05;;
71806;SDS011;59655;42.590;23.364;2022-12-05T09:59:01;11.50;;;6.22;;
71806;SDS011;59655;42.590;23.364;2022-12-05T10:15:44;12.98;;;7.65;;
71806;SDS011;59655;42.590;23.364;2022-12-05T10:24:05;11.45;;;6.18;;
71806;SDS011;59655;42.590;23.364;2022-12-05T10:26:45;13.00;;;5.88;;
71806;SDS011;59655;42.590;23.364;2022-12-05T10:34:32;12.73;;;7.00;;
71806;SDS011;59655;42.590;23.364;2022-12-05T10:37:07;12.63;;;6.72;;
71806;SDS011;59655;42.590;23.364;2022-12-05T10:39:36;14.80;;;7.22;;
71806;SDS011;59655;42.590;23.364;2022-12-05T10:42:02;16.08;;;7.65;;
71806;SDS011;59655;42.590;23.364;2022-12-05T10:44:28;13.90;;;6.88;;
71806;SDS011;59655;42.590;23.364;2022-12-05T10:46:54;14.32;;;7.43;;
71806;SDS011;59655;42.590;23.364;2022-12-05T10:49:20;14.52;;;6.95;;
71806;SDS011;59655;42.590;23.364;2022-12-05T10:51:47;15.40;;;7.65;;
71806;SDS011;59655;42.590;23.364;2022-12-05T10:54:17;17.85;;;7.55;;
71806;SDS011;59655;42.590;23.364;2022-12-05T10:56:47;64.85;;;40.05;;
71806;SDS011;59655;42.590;23.364;2022-12-05T10:59:15;34.38;;;20.65;;
71806;SDS011;59655;42.590;23.364;2022-12-05T11:01:56;20.88;;;12.13;;
71806;SDS011;59655;42.590;23.364;2022-12-05T11:04:24;50.45;;;19.45;;
71806;SDS011;59655;42.590;23.364;2022-12-05T11:07:02;20.17;;;9.65;;
71806;SDS011;59655;42.590;23.364;2022-12-05T11:09:30;16.50;;;7.75;;
71806;SDS011;59655;42.590;23.364;2022-12-05T11:14:54;16.77;;;9.38;;
71806;SDS011;59655;42.590;23.364;2022-12-05T11:17:30;18.77;;;9.70;;
71806;SDS011;59655;42.590;23.364;2022-12-05T11:19:58;17.25;;;8.75;;
71806;SDS011;59655;42.590;23.364;2022-12-05T11:22:33;16.90;;;9.60;;
71806;SDS011;59655;42.590;23.364;2022-12-05T11:25:00;18.35;;;9.25;;
71806;SDS011;59655;42.590;23.364;2022-12-05T11:27:45;27.58;;;18.42;;
71806;SDS011;59655;42.590;23.364;2022-12-05T11:32:37;32.35;;;23.35;;
71806;SDS011;59655;42.590;23.364;2022-12-05T11:40:13;38.53;;;23.98;;
71806;SDS011;59655;42.590;23.364;2022-12-05T11:42:52;34.70;;;20.85;;
71806;SDS011;59655;42.590;23.364;2022-12-05T11:48:31;26.55;;;14.00;;
71806;SDS011;59655;42.590;23.364;2022-12-05T11:51:17;18.60;;;10.35;;
71806;SDS011;59655;42.590;23.364;2022-12-05T11:59:15;34.03;;;18.80;;
71806;SDS011;59655;42.590;23.364;2022-12-05T12:13:45;14.98;;;8.27;;
71806;SDS011;59655;42.590;23.364;2022-12-05T12:26:38;13.00;;;6.70;;
71806;SDS011;59655;42.590;23.364;2022-12-05T12:31:53;16.77;;;6.93;;
71806;SDS011;59655;42.590;23.364;2022-12-05T12:37:43;23.88;;;15.10;;
71806;SDS011;59655;42.590;23.364;2022-12-05T12:42:48;24.27;;;12.02;;
71806;SDS011;59655;42.590;23.364;2022-12-05T12:45:38;21.40;;;9.38;;
71806;SDS011;59655;42.590;23.364;2022-12-05T12:50:49;18.35;;;8.65;;
71806;SDS011;59655;42.590;23.364;2022-12-05T12:58:53;18.52;;;8.30;;
71806;SDS011;59655;42.590;23.364;2022-12-05T13:07:02;22.98;;;11.55;;
71806;SDS011;59655;42.590;23.364;2022-12-05T13:12:10;28.77;;;11.32;;
71806;SDS011;59655;42.590;23.364;2022-12-05T13:14:41;30.08;;;12.27;;
71806;SDS011;59655;42.590;23.364;2022-12-05T13:17:15;33.78;;;13.18;;
71806;SDS011;59655;42.590;23.364;2022-12-05T13:19:48;32.17;;;13.63;;
71806;SDS011;59655;42.590;23.364;2022-12-05T13:22:15;29.92;;;12.95;;
71806;SDS011;59655;42.590;23.364;2022-12-05T13:24:41;31.52;;;11.93;;
71806;SDS011;59655;42.590;23.364;2022-12-05T13:27:08;28.02;;;11.48;;
71806;SDS011;59655;42.590;23.364;2022-12-05T13:29:40;33.65;;;12.05;;
71806;SDS011;59655;42.590;23.364;2022-12-05T13:32:34;33.80;;;13.18;;
71806;SDS011;59655;42.590;23.364;2022-12-05T13:35:01;32.78;;;12.95;;
71806;SDS011;59655;42.590;23.364;2022-12-05T13:37:33;33.45;;;13.15;;
71806;SDS011;59655;42.590;23.364;2022-12-05T13:43:02;37.42;;;13.40;;
71806;SDS011;59655;42.590;23.364;2022-12-05T13:45:29;33.80;;;14.30;;
71806;SDS011;59655;42.590;23.364;2022-12-05T13:52:56;36.47;;;14.18;;
71806;SDS011;59655;42.590;23.364;2022-12-05T13:55:36;39.35;;;14.98;;
71806;SDS011;59655;42.590;23.364;2022-12-05T14:00:47;35.67;;;15.48;;
71806;SDS011;59655;42.590;23.364;2022-12-05T14:05:57;43.00;;;17.55;;
71806;SDS011;59655;42.590;23.364;2022-12-05T14:11:06;43.03;;;17.15;;
71806;SDS011;59655;42.590;23.364;2022-12-05T14:24:18;47.67;;;20.63;;
71806;SDS011;59655;42.590;23.364;2022-12-05T14:37:26;45.55;;;18.48;;
71806;SDS011;59655;42.590;23.364;2022-12-05T14:40:03;46.35;;;18.10;;
71806;SDS011;59655;42.590;23.364;2022-12-05T14:42:43;52.90;;;19.63;;
71806;SDS011;59655;42.590;23.364;2022-12-05T14:47:56;37.00;;;14.10;;
71806;SDS011;59655;42.590;23.364;2022-12-05T14:55:46;48.08;;;17.67;;
71806;SDS011;59655;42.590;23.364;2022-12-05T14:58:50;42.63;;;15.55;;
71806;SDS011;59655;42.590;23.364;2022-12-05T15:01:29;45.35;;;15.85;;
71806;SDS011;59655;42.590;23.364;2022-12-05T15:06:54;37.72;;;14.63;;
71806;SDS011;59655;42.590;23.364;2022-12-05T15:12:19;42.97;;;17.92;;
71806;SDS011;59655;42.590;23.364;2022-12-05T15:14:52;58.47;;;19.35;;
71806;SDS011;59655;42.590;23.364;2022-12-05T15:17:38;40.22;;;15.70;;
71806;SDS011;59655;42.590;23.364;2022-12-05T15:20:16;44.08;;;16.13;;
71806;SDS011;59655;42.590;23.364;2022-12-05T15:22:48;50.40;;;17.88;;
71806;SDS011;59655;42.590;23.364;2022-12-05T15:25:14;51.08;;;17.80;;
71806;SDS011;59655;42.590;23.364;2022-12-05T15:27:54;39.67;;;14.52;;
71806;SDS011;59655;42.590;23.364;2022-12-05T15:30:21;39.75;;;14.75;;
71806;SDS011;59655;42.590;23.364;2022-12-05T15:32:47;41.08;;;15.10;;
71806;SDS011;59655;42.590;23.364;2022-12-05T15:35:12;46.15;;;16.60;;
71806;SDS011;59655;42.590;23.364;2022-12-05T15:37:43;41.95;;;15.48;;
71806;SDS011;59655;42.590;23.364;2022-12-05T15:40:11;46.28;;;14.73;;
71806;SDS011;59655;42.590;23.364;2022-12-05T15:42:59;43.58;;;16.58;;
71806;SDS011;59655;42.590;23.364;2022-12-05T15:45:26;45.65;;;16.27;;
71806;SDS011;59655;42.590;23.364;2022-12-05T15:52:50;40.80;;;15.98;;
71806;SDS011;59655;42.590;23.364;2022-12-05T15:55:37;41.47;;;16.85;;
71806;SDS011;59655;42.590;23.364;2022-12-05T16:00:49;40.45;;;14.40;;
71806;SDS011;59655;42.590;23.364;2022-12-05T16:06:11;45.58;;;15.52;;
71806;SDS011;59655;42.590;23.364;2022-12-05T16:08:42;42.30;;;16.13;;
71806;SDS011;59655;42.590;23.364;2022-12-05T16:11:09;51.30;;;17.80;;
71806;SDS011;59655;42.590;23.364;2022-12-05T16:13:35;44.65;;;17.45;;
71806;SDS011;59655;42.590;23.364;2022-12-05T16:16:06;38.78;;;15.10;;
71806;SDS011;59655;42.590;23.364;2022-12-05T16:18:32;36.63;;;16.10;;
71806;SDS011;59655;42.590;23.364;2022-12-05T16:20:58;49.10;;;18.70;;
71806;SDS011;59655;42.590;23.364;2022-12-05T16:26:08;46.97;;;20.88;;
71806;SDS011;59655;42.590;23.364;2022-12-05T16:28:55;49.13;;;22.98;;
71806;SDS011;59655;42.590;23.364;2022-12-05T16:31:24;54.38;;;26.67;;
71806;SDS011;59655;42.590;23.364;2022-12-05T16:34:06;66.15;;;30.25;;
71806;SDS011;59655;42.590;23.364;2022-12-05T16:36:44;69.05;;;29.27;;
71806;SDS011;59655;42.590;23.364;2022-12-05T16:39:13;63.72;;;29.35;;
71806;SDS011;59655;42.590;23.364;2022-12-05T16:41:39;74.45;;;32.25;;
71806;SDS011;59655;42.590;23.364;2022-12-05T16:46:51;75.10;;;30.15;;
71806;SDS011;59655;42.590;23.364;2022-12-05T16:51:44;50.05;;;23.00;;
71806;SDS011;59655;42.590;23.364;2022-12-05T16:54:17;53.35;;;23.65;;
71806;SDS011;59655;42.590;23.364;2022-12-05T16:56:42;41.10;;;20.38;;
71806;SDS011;59655;42.590;23.364;2022-12-05T16:59:10;39.17;;;17.60;;
71806;SDS011;59655;42.590;23.364;2022-12-05T17:01:43;44.10;;;17.65;;
71806;SDS011;59655;42.590;23.364;2022-12-05T17:04:09;52.90;;;22.23;;
71806;SDS011;59655;42.590;23.364;2022-12-05T17:06:35;41.35;;;18.55;;
71806;SDS011;59655;42.590;23.364;2022-12-05T17:09:00;40.00;;;20.90;;
71806;SDS011;59655;42.590;23.364;2022-12-05T17:11:26;39.22;;;18.88;;
71806;SDS011;59655;42.590;23.364;2022-12-05T17:13:54;38.58;;;17.70;;
71806;SDS011;59655;42.590;23.364;2022-12-05T17:16:21;42.17;;;18.67;;
71806;SDS011;59655;42.590;23.364;2022-12-05T17:18:47;45.15;;;22.05;;
71806;SDS011;59655;42.590;23.364;2022-12-05T17:21:14;88.20;;;40.45;;
71806;SDS011;59655;42.590;23.364;2022-12-05T17:23:42;57.65;;;26.88;;
71806;SDS011;59655;42.590;23.364;2022-12-05T17:26:08;76.43;;;30.58;;
71806;SDS011;59655;42.590;23.364;2022-12-05T17:28:37;93.20;;;39.03;;
71806;SDS011;59655;42.590;23.364;2022-12-05T17:31:03;79.13;;;32.03;;
71806;SDS011;59655;42.590;23.364;2022-12-05T17:33:29;57.10;;;24.10;;
71806;SDS011;59655;42.590;23.364;2022-12-05T17:35:54;42.33;;;17.50;;
71806;SDS011;59655;42.590;23.364;2022-12-05T17:38:20;54.85;;;22.75;;
71806;SDS011;59655;42.590;23.364;2022-12-05T17:40:46;47.22;;;22.67;;
71806;SDS011;59655;42.590;23.364;2022-12-05T17:43:12;50.78;;;21.95;;
71806;SDS011;59655;42.590;23.364;2022-12-05T17:45:39;52.35;;;23.65;;
71806;SDS011;59655;42.590;23.364;2022-12-05T17:48:04;56.95;;;23.77;;
71806;SDS011;59655;42.590;23.364;2022-12-05T17:50:30;57.70;;;23.15;;
71806;SDS011;59655;42.590;23.364;2022-12-05T17:52:56;61.17;;;25.45;;
71806;SDS011;59655;42.590;23.364;2022-12-05T17:55:23;53.15;;;22.65;;
71806;SDS011;59655;42.590;23.364;2022-12-05T17:57:51;65.20;;;27.70;;
71806;SDS011;59655;42.590;23.364;2022-12-05T18:00:18;125.85;;;45.97;;
71806;SDS011;59655;42.590;23.364;2022-12-05T18:02:44;130.27;;;47.17;;
71806;SDS011;59655;42.590;23.364;2022-12-05T18:05:10;112.38;;;37.60;;
71806;SDS011;59655;42.590;23.364;2022-12-05T18:07:37;95.22;;;35.05;;